sensor_id;sensor_type;location;lat;lon;timestamp;pressure;altitude;pressure_sealevel;temperature;humidity
68634;BME280;55625;47.072;22.192;2022-08-30T00:00:19;99841.06;;;19.26;94.31
68634;BME280;55625;47.072;22.192;2022-08-30T00:03:06;99849.09;;;19.16;94.86
68634;BME280;55625;47.072;22.192;2022-08-30T00:05:33;99840.72;;;19.13;95.24
68634;BME280;55625;47.072;22.192;2022-08-30T00:07:59;99851.19;;;19.16;95.77
68634;BME280;55625;47.072;22.192;2022-08-30T00:10:27;99846.75;;;19.15;94.82
68634;BME280;55625;47.072;22.192;2022-08-30T00:12:54;99850.13;;;19.13;95.27
68634;BME280;55625;47.072;22.192;2022-08-30T00:15:21;99858.75;;;19.13;96.18
68634;BME280;55625;47.072;22.192;2022-08-30T00:17:48;99854.06;;;19.16;95.82
68634;BME280;55625;47.072;22.192;2022-08-30T00:20:21;99863.00;;;19.18;96.00
68634;BME280;55625;47.072;22.192;2022-08-30T00:22:47;99858.03;;;19.18;96.15
68634;BME280;55625;47.072;22.192;2022-08-30T00:25:14;99863.00;;;19.18;96.52
68634;BME280;55625;47.072;22.192;2022-08-30T00:27:41;99857.22;;;19.18;96.46
68634;BME280;55625;47.072;22.192;2022-08-30T00:30:09;99863.72;;;19.13;96.32
68634;BME280;55625;47.072;22.192;2022-08-30T00:32:36;99864.75;;;19.10;96.77
68634;BME280;55625;47.072;22.192;2022-08-30T00:35:04;99863.19;;;19.09;96.81
68634;BME280;55625;47.072;22.192;2022-08-30T00:37:30;99853.75;;;19.08;97.24
68634;BME280;55625;47.072;22.192;2022-08-30T00:39:56;99864.75;;;19.10;96.92
68634;BME280;55625;47.072;22.192;2022-08-30T00:42:21;99867.34;;;19.08;96.61
68634;BME280;55625;47.072;22.192;2022-08-30T00:44:48;99861.59;;;19.08;96.82
68634;BME280;55625;47.072;22.192;2022-08-30T00:47:15;99862.09;;;19.06;96.56
68634;BME280;55625;47.072;22.192;2022-08-30T00:49:48;99851.91;;;19.05;97.48
68634;BME280;55625;47.072;22.192;2022-08-30T00:52:17;99858.16;;;19.04;97.42
68634;BME280;55625;47.072;22.192;2022-08-30T00:54:44;99854.25;;;19.07;98.23
68634;BME280;55625;47.072;22.192;2022-08-30T00:57:13;99852.97;;;19.08;98.06
68634;BME280;55625;47.072;22.192;2022-08-30T00:59:43;99857.16;;;19.07;98.08
68634;BME280;55625;47.072;22.192;2022-08-30T01:02:11;99844.34;;;19.08;98.01
68634;BME280;55625;47.072;22.192;2022-08-30T01:04:39;99849.06;;;19.11;98.05
68634;BME280;55625;47.072;22.192;2022-08-30T01:07:07;99845.97;;;19.14;98.15
68634;BME280;55625;47.072;22.192;2022-08-30T01:09:34;99843.59;;;19.13;98.13
68634;BME280;55625;47.072;22.192;2022-08-30T01:12:02;99847.78;;;19.12;98.78
68634;BME280;55625;47.072;22.192;2022-08-30T01:14:28;99843.81;;;19.09;99.27
68634;BME280;55625;47.072;22.192;2022-08-30T01:16:56;99848.00;;;19.08;99.13
68634;BME280;55625;47.072;22.192;2022-08-30T01:20:04;99840.44;;;19.11;99.14
68634;BME280;55625;47.072;22.192;2022-08-30T01:25:27;99835.47;;;19.11;99.28
68634;BME280;55625;47.072;22.192;2022-08-30T01:28:06;99837.03;;;19.12;99.02
68634;BME280;55625;47.072;22.192;2022-08-30T01:30:33;99836.25;;;19.12;99.08
68634;BME280;55625;47.072;22.192;2022-08-30T01:33:02;99836.25;;;19.12;99.03
68634;BME280;55625;47.072;22.192;2022-08-30T01:35:46;99835.47;;;19.11;98.86
68634;BME280;55625;47.072;22.192;2022-08-30T01:38:15;99826.06;;;19.11;98.61
68634;BME280;55625;47.072;22.192;2022-08-30T01:40:42;99830.75;;;19.08;98.75
68634;BME280;55625;47.072;22.192;2022-08-30T01:43:10;99823.91;;;19.06;98.61
68634;BME280;55625;47.072;22.192;2022-08-30T01:45:37;99830.47;;;19.06;98.45
68634;BME280;55625;47.072;22.192;2022-08-30T01:48:03;99825.72;;;19.03;98.39
68634;BME280;55625;47.072;22.192;2022-08-30T01:50:29;99832.00;;;19.02;98.60
68634;BME280;55625;47.072;22.192;2022-08-30T01:52:54;99836.72;;;19.05;97.94
68634;BME280;55625;47.072;22.192;2022-08-30T01:55:21;99837.41;;;18.94;99.08
68634;BME280;55625;47.072;22.192;2022-08-30T01:57:47;99836.59;;;18.93;99.02
68634;BME280;55625;47.072;22.192;2022-08-30T02:00:16;99839.22;;;18.91;98.97
68634;BME280;55625;47.072;22.192;2022-08-30T02:02:42;99845.47;;;18.90;99.14
68634;BME280;55625;47.072;22.192;2022-08-30T02:05:09;99841.00;;;18.89;98.90
68634;BME280;55625;47.072;22.192;2022-08-30T02:07:35;99839.16;;;18.86;99.09
68634;BME280;55625;47.072;22.192;2022-08-30T02:10:01;99845.69;;;18.86;99.31
68634;BME280;55625;47.072;22.192;2022-08-30T02:12:28;99833.13;;;18.84;99.52
68634;BME280;55625;47.072;22.192;2022-08-30T02:14:55;99840.47;;;18.85;99.79
68634;BME280;55625;47.072;22.192;2022-08-30T02:17:21;99842.03;;;18.86;99.80
68634;BME280;55625;47.072;22.192;2022-08-30T02:19:47;99838.66;;;18.87;99.87
68634;BME280;55625;47.072;22.192;2022-08-30T02:22:13;99840.22;;;18.88;99.98
68634;BME280;55625;47.072;22.192;2022-08-30T02:24:39;99839.72;;;18.90;100.00
68634;BME280;55625;47.072;22.192;2022-08-30T02:27:05;99834.25;;;18.92;99.96
68634;BME280;55625;47.072;22.192;2022-08-30T02:29:31;99828.22;;;18.90;99.86
68634;BME280;55625;47.072;22.192;2022-08-30T02:31:57;99833.47;;;18.91;100.00
68634;BME280;55625;47.072;22.192;2022-08-30T02:34:23;99833.47;;;18.91;100.00
68634;BME280;55625;47.072;22.192;2022-08-30T02:36:49;99833.97;;;18.90;100.00
68634;BME280;55625;47.072;22.192;2022-08-30T02:39:15;99833.19;;;18.89;100.00
68634;BME280;55625;47.072;22.192;2022-08-30T02:41:42;99836.06;;;18.89;99.98
68634;BME280;55625;47.072;22.192;2022-08-30T02:44:09;99844.16;;;18.91;99.54
68634;BME280;55625;47.072;22.192;2022-08-30T02:46:36;99835.81;;;18.93;99.91
68634;BME280;55625;47.072;22.192;2022-08-30T02:49:03;99835.31;;;18.95;99.20
68634;BME280;55625;47.072;22.192;2022-08-30T02:51:29;99836.09;;;18.95;99.04
68634;BME280;55625;47.072;22.192;2022-08-30T02:53:55;99844.44;;;18.93;98.95
68634;BME280;55625;47.072;22.192;2022-08-30T02:56:21;99841.28;;;18.91;99.16
68634;BME280;55625;47.072;22.192;2022-08-30T02:58:47;99837.63;;;18.90;99.78
68634;BME280;55625;47.072;22.192;2022-08-30T03:01:15;99841.81;;;18.89;99.74
68634;BME280;55625;47.072;22.192;2022-08-30T03:03:42;99840.50;;;18.90;99.67
68634;BME280;55625;47.072;22.192;2022-08-30T03:06:10;99837.63;;;18.90;99.79
68634;BME280;55625;47.072;22.192;2022-08-30T03:08:36;99835.53;;;18.91;99.66
68634;BME280;55625;47.072;22.192;2022-08-30T03:11:03;99834.25;;;18.92;99.40
68634;BME280;55625;47.072;22.192;2022-08-30T03:13:29;99833.47;;;18.91;99.47
68634;BME280;55625;47.072;22.192;2022-08-30T03:15:55;99836.59;;;18.93;99.40
68634;BME280;55625;47.072;22.192;2022-08-30T03:18:22;99842.59;;;18.90;99.85
68634;BME280;55625;47.072;22.192;2022-08-30T03:20:48;99842.31;;;18.88;99.78
68634;BME280;55625;47.072;22.192;2022-08-30T03:23:15;99845.19;;;18.88;99.91
68634;BME280;55625;47.072;22.192;2022-08-30T03:25:42;99853.03;;;18.87;100.00
68634;BME280;55625;47.072;22.192;2022-08-30T03:28:08;99847.28;;;18.87;99.96
68634;BME280;55625;47.072;22.192;2022-08-30T03:30:34;99853.03;;;18.87;100.00
68634;BME280;55625;47.072;22.192;2022-08-30T03:33:01;99853.03;;;18.87;99.95
68634;BME280;55625;47.072;22.192;2022-08-30T03:35:28;99854.06;;;18.84;99.62
68634;BME280;55625;47.072;22.192;2022-08-30T03:37:55;99846.44;;;18.81;99.42
68634;BME280;55625;47.072;22.192;2022-08-30T03:40:21;99851.63;;;18.77;99.82
68634;BME280;55625;47.072;22.192;2022-08-30T03:42:47;99857.38;;;18.77;99.80
68634;BME280;55625;47.072;22.192;2022-08-30T03:45:16;99861.56;;;18.76;100.00
68634;BME280;55625;47.072;22.192;2022-08-30T03:47:43;99855.81;;;18.76;100.00
68634;BME280;55625;47.072;22.192;2022-08-30T03:50:11;99859.19;;;18.75;100.00
68634;BME280;55625;47.072;22.192;2022-08-30T03:52:37;99864.44;;;18.76;99.88
68634;BME280;55625;47.072;22.192;2022-08-30T03:55:04;99857.09;;;18.75;100.00
68634;BME280;55625;47.072;22.192;2022-08-30T03:57:30;99864.16;;;18.74;100.00
68634;BME280;55625;47.072;22.192;2022-08-30T03:59:56;99863.38;;;18.74;100.00
68634;BME280;55625;47.072;22.192;2022-08-30T04:02:22;99858.63;;;18.71;100.00
68634;BME280;55625;47.072;22.192;2022-08-30T04:04:48;99865.16;;;18.71;100.00
68634;BME280;55625;47.072;22.192;2022-08-30T04:07:14;99864.66;;;18.73;100.00
68634;BME280;55625;47.072;22.192;2022-08-30T04:09:40;99856.81;;;18.73;100.00
68634;BME280;55625;47.072;22.192;2022-08-30T04:12:06;99867.31;;;18.76;100.00
68634;BME280;55625;47.072;22.192;2022-08-30T04:14:32;99862.13;;;18.80;100.00
68634;BME280;55625;47.072;22.192;2022-08-30T04:16:58;99865.56;;;18.84;100.00
68634;BME280;55625;47.072;22.192;2022-08-30T04:19:24;99871.31;;;18.84;100.00
68634;BME280;55625;47.072;22.192;2022-08-30T04:21:50;99879.94;;;18.84;100.00
68634;BME280;55625;47.072;22.192;2022-08-30T04:24:16;99870.00;;;18.85;100.00
68634;BME280;55625;47.072;22.192;2022-08-30T04:26:42;99879.13;;;18.84;100.00
68634;BME280;55625;47.072;22.192;2022-08-30T04:29:08;99887.53;;;18.87;100.00
68634;BME280;55625;47.072;22.192;2022-08-30T04:31:36;99895.66;;;18.89;100.00
68634;BME280;55625;47.072;22.192;2022-08-30T04:34:02;99892.00;;;18.88;100.00
68634;BME280;55625;47.072;22.192;2022-08-30T04:36:28;99896.44;;;18.89;100.00
68634;BME280;55625;47.072;22.192;2022-08-30T04:38:53;99902.47;;;18.91;100.00
68634;BME280;55625;47.072;22.192;2022-08-30T04:41:20;99895.72;;;18.95;100.00
68634;BME280;55625;47.072;22.192;2022-08-30T04:43:48;99897.56;;;18.98;100.00
68634;BME280;55625;47.072;22.192;2022-08-30T04:46:16;99895.78;;;19.00;100.00
68634;BME280;55625;47.072;22.192;2022-08-30T04:48:44;99899.75;;;19.03;100.00
68634;BME280;55625;47.072;22.192;2022-08-30T04:51:14;99904.75;;;19.08;100.00
68634;BME280;55625;47.072;22.192;2022-08-30T04:53:41;99904.00;;;19.13;100.00
68634;BME280;55625;47.072;22.192;2022-08-30T04:56:09;99914.78;;;19.18;100.00
68634;BME280;55625;47.072;22.192;2022-08-30T04:58:36;99908.28;;;19.23;100.00
68634;BME280;55625;47.072;22.192;2022-08-30T05:01:03;99911.72;;;19.27;100.00
68634;BME280;55625;47.072;22.192;2022-08-30T05:03:29;99914.91;;;19.29;99.21
68634;BME280;55625;47.072;22.192;2022-08-30T05:05:55;99913.88;;;19.32;98.96
68634;BME280;55625;47.072;22.192;2022-08-30T05:08:22;99909.47;;;19.37;98.90
68634;BME280;55625;47.072;22.192;2022-08-30T05:10:50;99917.88;;;19.40;98.52
68634;BME280;55625;47.072;22.192;2022-08-30T05:13:19;99912.16;;;19.46;98.54
68634;BME280;55625;47.072;22.192;2022-08-30T05:15:46;99910.34;;;19.48;98.10
68634;BME280;55625;47.072;22.192;2022-08-30T05:18:12;99915.06;;;19.51;98.09
68634;BME280;55625;47.072;22.192;2022-08-30T05:20:41;99920.34;;;19.53;97.82
68634;BME280;55625;47.072;22.192;2022-08-30T05:23:07;99920.91;;;19.57;97.71
68634;BME280;55625;47.072;22.192;2022-08-30T05:25:37;99922.25;;;19.62;96.92
68634;BME280;55625;47.072;22.192;2022-08-30T05:28:04;99916.78;;;19.64;97.00
68634;BME280;55625;47.072;22.192;2022-08-30T05:30:33;99919.69;;;19.69;96.48
68634;BME280;55625;47.072;22.192;2022-08-30T05:33:00;99916.31;;;19.71;95.70
68634;BME280;55625;47.072;22.192;2022-08-30T05:35:26;99910.03;;;19.72;95.36
68634;BME280;55625;47.072;22.192;2022-08-30T05:37:53;99916.84;;;19.75;95.88
68634;BME280;55625;47.072;22.192;2022-08-30T05:40:20;99916.34;;;19.76;96.07
68634;BME280;55625;47.072;22.192;2022-08-30T05:42:46;99916.09;;;19.80;94.99
68634;BME280;55625;47.072;22.192;2022-08-30T05:45:13;99918.50;;;19.87;93.73
68634;BME280;55625;47.072;22.192;2022-08-30T05:47:40;99936.38;;;19.91;93.63
68634;BME280;55625;47.072;22.192;2022-08-30T05:50:07;99933.28;;;20.00;94.26
68634;BME280;55625;47.072;22.192;2022-08-30T05:52:38;99924.94;;;20.08;93.91
68634;BME280;55625;47.072;22.192;2022-08-30T05:55:06;99933.34;;;20.17;93.34
68634;BME280;55625;47.072;22.192;2022-08-30T05:57:35;99935.00;;;20.24;93.15
68634;BME280;55625;47.072;22.192;2022-08-30T06:00:04;99930.31;;;20.32;92.73
68634;BME280;55625;47.072;22.192;2022-08-30T06:02:30;99938.19;;;20.37;91.58
68634;BME280;55625;47.072;22.192;2022-08-30T06:04:56;99934.56;;;20.42;91.74
68634;BME280;55625;47.072;22.192;2022-08-30T06:07:22;99941.66;;;20.46;90.61
68634;BME280;55625;47.072;22.192;2022-08-30T06:09:48;99935.38;;;20.48;90.79
68634;BME280;55625;47.072;22.192;2022-08-30T06:12:14;99935.94;;;20.52;90.23
68634;BME280;55625;47.072;22.192;2022-08-30T06:14:40;99929.41;;;20.57;90.61
68634;BME280;55625;47.072;22.192;2022-08-30T06:17:06;99929.16;;;20.66;91.16
68634;BME280;55625;47.072;22.192;2022-08-30T06:19:32;99939.69;;;20.75;90.80
68634;BME280;55625;47.072;22.192;2022-08-30T06:21:58;99931.34;;;20.83;89.64
68634;BME280;55625;47.072;22.192;2022-08-30T06:24:25;99944.69;;;20.80;88.75
68634;BME280;55625;47.072;22.192;2022-08-30T06:26:51;99941.06;;;20.85;88.19
68634;BME280;55625;47.072;22.192;2022-08-30T06:29:19;99935.56;;;20.98;88.71
68634;BME280;55625;47.072;22.192;2022-08-30T06:31:45;99945.84;;;21.16;87.87
68634;BME280;55625;47.072;22.192;2022-08-30T06:34:14;99943.25;;;21.29;87.59
68634;BME280;55625;47.072;22.192;2022-08-30T06:36:40;99953.00;;;21.43;87.66
68634;BME280;55625;47.072;22.192;2022-08-30T06:39:07;99954.84;;;21.52;85.65
68634;BME280;55625;47.072;22.192;2022-08-30T06:41:36;99943.81;;;21.61;84.81
68634;BME280;55625;47.072;22.192;2022-08-30T06:44:04;99938.00;;;21.73;84.28
68634;BME280;55625;47.072;22.192;2022-08-30T06:46:34;99943.78;;;21.89;82.34
68634;BME280;55625;47.072;22.192;2022-08-30T06:49:03;99939.03;;;22.20;83.38
68634;BME280;55625;47.072;22.192;2022-08-30T06:51:35;99932.69;;;22.38;77.53
68634;BME280;55625;47.072;22.192;2022-08-30T06:54:03;99938.22;;;22.25;78.28
68634;BME280;55625;47.072;22.192;2022-08-30T06:56:29;99936.91;;;22.37;80.04
68634;BME280;55625;47.072;22.192;2022-08-30T06:58:56;99944.72;;;22.53;78.93
68634;BME280;55625;47.072;22.192;2022-08-30T07:01:25;99940.94;;;22.75;77.65
68634;BME280;55625;47.072;22.192;2022-08-30T07:03:53;99945.66;;;22.84;77.45
68634;BME280;55625;47.072;22.192;2022-08-30T07:06:20;99945.88;;;22.91;78.04
68634;BME280;55625;47.072;22.192;2022-08-30T07:08:47;99946.63;;;23.03;77.81
68634;BME280;55625;47.072;22.192;2022-08-30T07:11:23;99947.34;;;23.15;76.80
68634;BME280;55625;47.072;22.192;2022-08-30T07:13:50;99953.34;;;23.22;74.33
68634;BME280;55625;47.072;22.192;2022-08-30T07:16:16;99945.47;;;23.17;73.81
68634;BME280;55625;47.072;22.192;2022-08-30T07:18:41;99939.19;;;23.13;74.97
68634;BME280;55625;47.072;22.192;2022-08-30T07:21:30;99942.78;;;23.25;73.53
68634;BME280;55625;47.072;22.192;2022-08-30T07:23:58;99948.50;;;23.36;75.04
68634;BME280;55625;47.072;22.192;2022-08-30T07:26:35;99945.97;;;23.63;75.12
68634;BME280;55625;47.072;22.192;2022-08-30T07:29:02;99944.41;;;23.92;72.64
68634;BME280;55625;47.072;22.192;2022-08-30T07:31:29;99944.28;;;24.03;72.76
68634;BME280;55625;47.072;22.192;2022-08-30T07:33:55;99949.25;;;24.08;71.14
68634;BME280;55625;47.072;22.192;2022-08-30T07:36:22;99953.63;;;24.20;70.68
68634;BME280;55625;47.072;22.192;2022-08-30T07:38:50;99954.59;;;24.28;71.56
68634;BME280;55625;47.072;22.192;2022-08-30T07:41:26;99958.75;;;24.57;71.69
68634;BME280;55625;47.072;22.192;2022-08-30T07:43:53;99951.63;;;24.77;70.26
68634;BME280;55625;47.072;22.192;2022-08-30T07:46:20;99954.00;;;24.78;67.86
68634;BME280;55625;47.072;22.192;2022-08-30T07:48:46;99957.00;;;24.92;68.74
68634;BME280;55625;47.072;22.192;2022-08-30T07:51:18;99955.97;;;24.89;70.79
68634;BME280;55625;47.072;22.192;2022-08-30T07:53:44;99960.38;;;24.96;69.45
68634;BME280;55625;47.072;22.192;2022-08-30T07:56:11;99963.00;;;25.18;69.53
68634;BME280;55625;47.072;22.192;2022-08-30T07:58:38;99960.72;;;25.30;68.23
68634;BME280;55625;47.072;22.192;2022-08-30T08:01:10;99948.22;;;25.35;67.56
68634;BME280;55625;47.072;22.192;2022-08-30T08:03:37;99958.97;;;25.40;66.41
68634;BME280;55625;47.072;22.192;2022-08-30T08:06:06;99956.31;;;25.42;67.21
68634;BME280;55625;47.072;22.192;2022-08-30T08:08:33;99966.84;;;25.45;67.15
68634;BME280;55625;47.072;22.192;2022-08-30T08:11:09;99959.50;;;25.57;65.73
68634;BME280;55625;47.072;22.192;2022-08-30T08:13:37;99964.53;;;25.38;65.83
68634;BME280;55625;47.072;22.192;2022-08-30T08:16:03;99960.56;;;25.41;66.85
68634;BME280;55625;47.072;22.192;2022-08-30T08:18:29;99959.13;;;25.48;65.70
68634;BME280;55625;47.072;22.192;2022-08-30T08:20:57;99957.94;;;25.56;65.59
68634;BME280;55625;47.072;22.192;2022-08-30T08:23:23;99957.47;;;25.52;65.67
68634;BME280;55625;47.072;22.192;2022-08-30T08:25:50;99946.72;;;25.47;66.01
68634;BME280;55625;47.072;22.192;2022-08-30T08:28:16;99956.78;;;25.46;66.02
68634;BME280;55625;47.072;22.192;2022-08-30T08:30:42;99958.19;;;25.39;66.32
68634;BME280;55625;47.072;22.192;2022-08-30T08:33:08;99951.69;;;25.65;65.32
68634;BME280;55625;47.072;22.192;2022-08-30T08:35:35;99951.25;;;25.93;65.38
68634;BME280;55625;47.072;22.192;2022-08-30T08:38:01;99955.38;;;25.98;64.30
68634;BME280;55625;47.072;22.192;2022-08-30T08:40:28;99952.47;;;25.85;63.57
68634;BME280;55625;47.072;22.192;2022-08-30T08:43:11;99955.38;;;25.85;62.93
68634;BME280;55625;47.072;22.192;2022-08-30T08:45:50;99950.91;;;25.84;63.52
68634;BME280;55625;47.072;22.192;2022-08-30T08:48:39;99957.94;;;25.88;63.15
68634;BME280;55625;47.072;22.192;2022-08-30T08:51:14;99962.72;;;25.73;63.43
68634;BME280;55625;47.072;22.192;2022-08-30T08:54:07;99956.91;;;25.73;63.85
68634;BME280;55625;47.072;22.192;2022-08-30T08:56:35;99959.63;;;25.65;63.81
68634;BME280;55625;47.072;22.192;2022-08-30T08:59:07;99955.16;;;25.64;64.98
68634;BME280;55625;47.072;22.192;2022-08-30T09:01:34;99957.38;;;25.77;63.92
68634;BME280;55625;47.072;22.192;2022-08-30T09:04:16;99950.31;;;25.72;63.82
68634;BME280;55625;47.072;22.192;2022-08-30T09:07:08;99943.94;;;25.74;64.01
68634;BME280;55625;47.072;22.192;2022-08-30T09:09:39;99939.59;;;25.80;65.06
68634;BME280;55625;47.072;22.192;2022-08-30T09:12:09;99941.63;;;25.85;65.71
68634;BME280;55625;47.072;22.192;2022-08-30T09:14:40;99944.97;;;25.89;64.92
68634;BME280;55625;47.072;22.192;2022-08-30T09:17:13;99951.13;;;25.86;63.31
68634;BME280;55625;47.072;22.192;2022-08-30T09:22:40;99942.50;;;25.80;65.00
68634;BME280;55625;47.072;22.192;2022-08-30T09:27:41;99944.78;;;25.68;64.33
68634;BME280;55625;47.072;22.192;2022-08-30T09:30:15;99944.56;;;25.66;63.73
68634;BME280;55625;47.072;22.192;2022-08-30T09:32:58;99934.81;;;25.64;64.92
68634;BME280;55625;47.072;22.192;2022-08-30T09:35:32;99936.47;;;25.59;64.95
68634;BME280;55625;47.072;22.192;2022-08-30T09:38:09;99940.25;;;25.54;65.15
68634;BME280;55625;47.072;22.192;2022-08-30T09:40:49;99940.72;;;25.58;66.29
68634;BME280;55625;47.072;22.192;2022-08-30T09:45:47;99932.00;;;25.58;67.21
68634;BME280;55625;47.072;22.192;2022-08-30T09:57:21;99920.19;;;26.81;61.50
68634;BME280;55625;47.072;22.192;2022-08-30T10:02:42;99920.56;;;27.25;60.24
68634;BME280;55625;47.072;22.192;2022-08-30T10:08:11;99915.16;;;27.49;59.57
68634;BME280;55625;47.072;22.192;2022-08-30T10:11:06;99913.91;;;27.79;59.16
68634;BME280;55625;47.072;22.192;2022-08-30T10:14:07;99906.09;;;27.95;58.66
68634;BME280;55625;47.072;22.192;2022-08-30T10:19:45;99897.38;;;28.02;56.79
68634;BME280;55625;47.072;22.192;2022-08-30T10:25:23;99897.66;;;28.12;55.11
68634;BME280;55625;47.072;22.192;2022-08-30T10:28:02;99895.47;;;27.84;56.42
68634;BME280;55625;47.072;22.192;2022-08-30T10:30:33;99890.78;;;28.02;57.18
68634;BME280;55625;47.072;22.192;2022-08-30T10:35:39;99888.81;;;27.76;56.14
68634;BME280;55625;47.072;22.192;2022-08-30T10:38:15;99884.47;;;27.69;56.01
68634;BME280;55625;47.072;22.192;2022-08-30T10:40:54;99888.00;;;27.96;55.89
68634;BME280;55625;47.072;22.192;2022-08-30T10:47:15;99872.22;;;28.85;54.82
68634;BME280;55625;47.072;22.192;2022-08-30T10:49:47;99877.78;;;29.11;53.30
68634;BME280;55625;47.072;22.192;2022-08-30T10:52:52;99872.88;;;29.06;52.09
68634;BME280;55625;47.072;22.192;2022-08-30T10:55:33;99866.66;;;28.66;53.67
68634;BME280;55625;47.072;22.192;2022-08-30T10:58:04;99860.41;;;28.62;53.20
68634;BME280;55625;47.072;22.192;2022-08-30T11:01:02;99858.41;;;28.49;52.69
68634;BME280;55625;47.072;22.192;2022-08-30T11:14:45;99847.72;;;28.52;54.74
68634;BME280;55625;47.072;22.192;2022-08-30T11:17:34;99848.94;;;28.28;54.49
68634;BME280;55625;47.072;22.192;2022-08-30T11:20:03;99843.56;;;28.11;55.65
68634;BME280;55625;47.072;22.192;2022-08-30T11:22:35;99840.63;;;28.11;55.47
68634;BME280;55625;47.072;22.192;2022-08-30T11:25:14;99836.28;;;28.25;54.32
68634;BME280;55625;47.072;22.192;2022-08-30T11:27:54;99822.72;;;28.43;55.41
68634;BME280;55625;47.072;22.192;2022-08-30T11:33:26;99823.63;;;28.66;53.41
68634;BME280;55625;47.072;22.192;2022-08-30T11:35:52;99825.38;;;28.69;53.46
68634;BME280;55625;47.072;22.192;2022-08-30T11:54:32;99834.22;;;27.84;53.60
68634;BME280;55625;47.072;22.192;2022-08-30T12:03:00;99824.66;;;28.33;53.57
68634;BME280;55625;47.072;22.192;2022-08-30T12:13:55;99811.91;;;28.23;52.40
68634;BME280;55625;47.072;22.192;2022-08-30T12:16:39;99813.56;;;28.39;52.57
68634;BME280;55625;47.072;22.192;2022-08-30T12:19:28;99817.59;;;28.72;51.06
68634;BME280;55625;47.072;22.192;2022-08-30T12:21:59;99816.91;;;28.87;51.38
68634;BME280;55625;47.072;22.192;2022-08-30T12:24:40;99818.28;;;28.93;51.02
68634;BME280;55625;47.072;22.192;2022-08-30T12:27:26;99809.22;;;28.68;50.95
68634;BME280;55625;47.072;22.192;2022-08-30T12:30:04;99819.78;;;28.79;51.61
68634;BME280;55625;47.072;22.192;2022-08-30T12:32:31;99812.91;;;28.69;50.97
68634;BME280;55625;47.072;22.192;2022-08-30T12:35:02;99812.53;;;28.72;50.15
68634;BME280;55625;47.072;22.192;2022-08-30T12:37:36;99811.03;;;28.79;50.49
68634;BME280;55625;47.072;22.192;2022-08-30T12:40:15;99810.56;;;28.67;49.49
68634;BME280;55625;47.072;22.192;2022-08-30T12:42:56;99812.13;;;28.68;52.00
68634;BME280;55625;47.072;22.192;2022-08-30T12:45:27;99803.09;;;28.87;50.17
68634;BME280;55625;47.072;22.192;2022-08-30T12:48:07;99803.28;;;28.89;50.76
68634;BME280;55625;47.072;22.192;2022-08-30T12:50:44;99793.72;;;28.89;48.81
68634;BME280;55625;47.072;22.192;2022-08-30T12:53:40;99796.28;;;29.00;49.11
68634;BME280;55625;47.072;22.192;2022-08-30T12:56:15;99792.94;;;28.88;48.52
68634;BME280;55625;47.072;22.192;2022-08-30T12:58:45;99785.28;;;28.77;48.86
68634;BME280;55625;47.072;22.192;2022-08-30T13:01:27;99783.03;;;28.91;48.99
68634;BME280;55625;47.072;22.192;2022-08-30T13:04:26;99775.66;;;29.13;49.19
68634;BME280;55625;47.072;22.192;2022-08-30T13:07:00;99761.63;;;29.19;48.65
68634;BME280;55625;47.072;22.192;2022-08-30T13:09:36;99774.28;;;29.37;49.22
68634;BME280;55625;47.072;22.192;2022-08-30T13:12:27;99766.69;;;29.11;47.00
68634;BME280;55625;47.072;22.192;2022-08-30T13:15:27;99761.22;;;29.08;46.75
68634;BME280;55625;47.072;22.192;2022-08-30T13:18:17;99753.03;;;28.98;46.87
68634;BME280;55625;47.072;22.192;2022-08-30T13:20:46;99755.38;;;29.00;47.72
68634;BME280;55625;47.072;22.192;2022-08-30T13:23:22;99748.53;;;28.97;46.28
68634;BME280;55625;47.072;22.192;2022-08-30T13:25:49;99746.38;;;28.83;47.79
68634;BME280;55625;47.072;22.192;2022-08-30T13:28:17;99750.22;;;28.70;49.64
68634;BME280;55625;47.072;22.192;2022-08-30T13:30:45;99754.19;;;29.03;48.54
68634;BME280;55625;47.072;22.192;2022-08-30T13:33:11;99747.72;;;28.82;48.06
68634;BME280;55625;47.072;22.192;2022-08-30T13:35:37;99750.81;;;28.76;46.64
68634;BME280;55625;47.072;22.192;2022-08-30T13:38:03;99750.84;;;28.84;47.82
68634;BME280;55625;47.072;22.192;2022-08-30T13:40:29;99735.69;;;28.93;47.92
68634;BME280;55625;47.072;22.192;2022-08-30T13:42:55;99735.88;;;28.95;47.92
68634;BME280;55625;47.072;22.192;2022-08-30T13:45:21;99738.25;;;29.12;47.31
68634;BME280;55625;47.072;22.192;2022-08-30T13:47:47;99735.47;;;28.83;47.65
68634;BME280;55625;47.072;22.192;2022-08-30T13:50:14;99737.63;;;28.90;47.56
68634;BME280;55625;47.072;22.192;2022-08-30T13:52:40;99731.88;;;28.54;47.43
68634;BME280;55625;47.072;22.192;2022-08-30T13:55:06;99735.56;;;28.47;47.55
68634;BME280;55625;47.072;22.192;2022-08-30T13:57:34;99740.38;;;28.37;48.61
68634;BME280;55625;47.072;22.192;2022-08-30T13:59:59;99729.84;;;28.34;48.00
68634;BME280;55625;47.072;22.192;2022-08-30T14:02:25;99732.06;;;28.12;46.93
68634;BME280;55625;47.072;22.192;2022-08-30T14:04:51;99723.50;;;28.14;47.64
68634;BME280;55625;47.072;22.192;2022-08-30T14:07:17;99722.34;;;28.10;49.29
68634;BME280;55625;47.072;22.192;2022-08-30T14:09:43;99725.44;;;28.04;47.26
68634;BME280;55625;47.072;22.192;2022-08-30T14:12:08;99716.41;;;27.87;47.68
68634;BME280;55625;47.072;22.192;2022-08-30T14:14:34;99718.69;;;27.81;49.42
68634;BME280;55625;47.072;22.192;2022-08-30T14:17:00;99720.44;;;27.84;49.47
68634;BME280;55625;47.072;22.192;2022-08-30T14:19:26;99719.88;;;27.86;48.20
68634;BME280;55625;47.072;22.192;2022-08-30T14:21:52;99716.19;;;27.85;48.69
68634;BME280;55625;47.072;22.192;2022-08-30T14:24:18;99707.78;;;27.81;48.40